Free Trial

Sprinklr (CXM) Institutional Ownership

$12.06
+0.07 (+0.58%)
(As of 05/24/2024 07:00 PM ET)

Institutional Ownership Changes (13F Filings) for Sprinklr (NYSE:CXM)

Current
Institutional Ownership
Percentage
40.19%
Number of
Institutional Buyers
(last 12 months)
108
Total
Institutional Inflows
(last 12 months)
$476.81M
Number of
Institutional Sellers
(last 12 months)
47
Total
Institutional Outflows
(last 12 months)
$139.40M
Get CXM Insider Trade Alerts

Want to know when executives and insiders are buying or selling Sprinklr stock? Sign up for InsiderTrades.com's daily newsletter to get the latest insider transactions delivered to your inbox daily.

Skip Chart & View Institutional Buying and Selling Data

CXM Institutional Buying and Selling by Quarter

Sprinklr Major Shareholders & Ownership History

Reporting DateMajor Shareholder NameShares HeldMarket Value% of PortfolioQuarterly Change in SharesOwnership in CompanyDetails
5/17/2024 Washington Harbour Partners LP100,000$1.23M2.0%N/A0.037%
5/17/2024 Comerica Bank48,659$597K0.0%N/A0.018%
5/16/2024 California State Teachers Retirement System119,751$1.47M0.0%+4.3%0.044%
5/16/2024 Bayesian Capital Management LP82,500$1.01M0.1%N/A0.030%
5/15/2024 Price T Rowe Associates Inc. MD41,179$506K0.0%-78.3%0.015%
5/15/2024 Lazard Asset Management LLC23,020$281K0.0%-35.1%0.008%
5/14/2024 American International Group Inc.57,558$706K0.0%+9.6%0.021%
5/10/2024 Vanguard Group Inc.15,248,951$187.11M0.0%+30.6%5.582%
5/8/2024 Battery Management Corp.10,409,759$127.73M28.2%-28.0%3.810%
5/8/2024 ProShare Advisors LLC21,571$265K0.0%+23.3%0.008%
5/8/2024 Russell Investments Group Ltd.3,427$42K0.0%-53.7%0.001%
5/7/2024 Sei Investments Co.185,133$2.27M0.0%-39.7%0.068%
5/7/2024Susquehanna Fundamental Investments LLC13,563$166K0.0%N/A0.005%
5/7/2024 Swiss National Bank239,500$2.94M0.0%+11.1%0.088%
5/6/2024 Texas Permanent School Fund Corp103,493$1.27M0.0%N/A0.038%
5/2/2024 Mutual of America Capital Management LLC20,371$250K0.0%-73.4%0.007%
5/1/2024 Mirae Asset Global Investments Co. Ltd.48,777$598K0.0%-60.0%0.018%
4/29/2024 Principal Financial Group Inc.690,055$8.47M0.0%+212.6%0.253%
4/26/2024 Yousif Capital Management LLC52,810$648K0.0%N/A0.019%
4/25/2024 New York State Teachers Retirement System26,254$322K0.0%N/A0.010%
4/25/2024 Horrell Capital Management Inc.471,000$5.78M1.6%+40.2%0.172%
4/23/2024 Louisiana State Employees Retirement System58,600$719K0.0%N/A0.021%
4/22/2024 Windmill Hill Asset Management Ltd85,649$1.05M0.4%+44.8%0.031%
4/20/2024 Maryland State Retirement & Pension System42,611$484K0.0%N/A0.016%
4/19/2024 Kovack Advisors Inc.70,600$866K0.1%-2.1%0.026%
4/19/2024 State of Alaska Department of Revenue72,037$883K0.0%N/A0.026%
4/18/2024 Allspring Global Investments Holdings LLC710,832$8.72M0.0%+19,023.8%0.260%
4/17/2024 Hennion & Walsh Asset Management Inc.33,416$410K0.0%+79.7%0.012%
4/9/2024 Mather Group LLC.2,317$28K0.0%N/A0.001%
3/25/2024 Quadrature Capital Ltd33,713$406K0.0%-53.7%0.012%
3/11/2024 Vanguard Group Inc.11,673,950$140.55M0.0%0.0%4.262%
3/5/2024 Wellington Management Group LLP839,687$10.11M0.0%-1.3%0.307%
2/26/2024 Virtu Financial LLC14,389$173K0.0%N/A0.005%
2/17/2024 Bullseye Asset Management LLC55,654$670K0.3%+21.9%0.020%
2/15/2024 Praesidium Investment Management Company LLC4,305,935$51.84M6.4%-3.3%1.572%
2/14/2024 TFG Asset Management GP Ltd2,200,000$26.49M6.4%+15.8%0.803%
2/14/2024 Scalar Gauge Management LLC145,000$1.75M1.7%N/A0.053%
2/14/2024 Cadian Capital Management LP14,560,167$175.30M7.0%+29.9%5.316%
2/14/2024 Ghisallo Capital Management LLC87,563$1.05M0.1%N/A0.032%
2/14/2024 Kettle Hill Capital Management LLC1,070,555$12.89M3.4%N/A0.391%
Protect Your Bank Account Before It’s Too Late (Ad)

For months I’ve been warning about the federal government’s terrifying new program to control every American’s bank account. It gives them the power to monitor every single transaction …

Stop right now and do these 3 things to protect yourself
2/13/2024 Circumference Group LLC336,000$4.05M3.3%N/A0.123%
2/13/2024 RK Capital Management LLC514,100$6.19M1.3%+29.0%0.188%
2/13/2024 CWA Asset Management Group LLC25,150$303K0.0%-16.6%0.009%
2/12/2024 Global Endowment Management LP50,440$607K0.1%-29.7%0.018%
2/12/2024 George Kaiser Family Foundation165,468$1.99M0.4%-42.6%0.060%
2/9/2024 Renaissance Group LLC126,852$1.53M0.1%N/A0.046%
2/9/2024 Quest Partners LLC9,519$115K0.0%N/A0.003%
2/9/2024 D.A. Davidson & CO.13,350$161K0.0%N/A0.005%
2/9/2024 BI Asset Management Fondsmaeglerselskab A S23,308$281K0.0%-15.6%0.009%
2/8/2024 Great Lakes Advisors LLC100,105$1.21M0.0%-49.5%0.037%
2/8/2024 Wealthcare Capital Management LLC14,243$171K0.0%-75.0%0.005%
2/8/2024 Nicholas Investment Partners LP207,997$2.50M0.3%-29.7%0.076%
2/7/2024 Principal Financial Group Inc.220,750$2.66M0.0%-32.0%0.081%
2/7/2024 Formidable Asset Management LLC15,935$192K0.0%-11.2%0.006%
2/7/2024 Jump Financial LLC39,670$478K0.0%+5.0%0.014%
2/7/2024 Teacher Retirement System of Texas21,078$254K0.0%-67.3%0.008%
2/7/2024 Thompson Siegel & Walmsley LLC365,000$4.40M0.1%N/A0.133%
2/6/2024 Charles Schwab Investment Management Inc.905,756$10.91M0.0%+3.1%0.331%
2/6/2024 Westover Capital Advisors LLC75,643$911K0.3%N/A0.028%
2/6/2024 Swiss National Bank215,600$2.60M0.0%-2.0%0.079%
2/5/2024 Victory Capital Management Inc.13,885$167K0.0%+31.4%0.005%
2/5/2024 Russell Investments Group Ltd.7,402$89K0.0%-96.0%0.003%
2/2/2024 Kovack Advisors Inc.72,100$868K0.1%+54.1%0.026%
2/2/2024 Stanley Laman Group Ltd.1,045,673$12.59M1.9%+1,185.6%0.382%
2/1/2024 New York State Common Retirement Fund207,787$2.50M0.0%-1.1%0.076%
2/1/2024 Jennison Associates LLC58,239$701K0.0%+22.9%0.021%
2/1/2024 Handelsbanken Fonder AB15,000$181K0.0%N/A0.005%
1/31/2024 Federated Hermes Inc.996,992$12.00M0.0%+28.6%0.364%
1/30/2024 Zurcher Kantonalbank Zurich Cantonalbank26,061$314K0.0%+22.1%0.010%
1/30/2024 Strs Ohio63,700$766K0.0%+16.5%0.023%
1/30/2024 Vontobel Holding Ltd.48,941$589K0.0%N/A0.018%
1/26/2024 Mutual of America Capital Management LLC76,574$922K0.0%-4.4%0.028%
1/26/2024 Windmill Hill Asset Management Ltd59,140$712K0.4%+200.1%0.022%
1/25/2024 Allspring Global Investments Holdings LLC3,717$45K0.0%-99.4%0.001%
1/24/2024 Mirae Asset Global Investments Co. Ltd.122,059$1.47M0.0%+33.2%0.045%
1/24/2024 Arizona State Retirement System30,582$368K0.0%+7.3%0.011%
1/18/2024 Ellsworth Advisors LLC38,971$469K0.1%N/A0.014%
1/16/2024 Legato Capital Management LLC30,167$363K0.0%-49.2%0.011%
1/12/2024 SG Americas Securities LLC14,635$176K0.0%-31.2%0.005%
1/11/2024 Horrell Capital Management Inc.336,000$4.05M1.2%+63.1%0.123%
12/18/2023 Vanguard Group Inc.11,677,600$161.62M0.0%+13.6%4.264%
12/6/2023 Citigroup Inc.27,343$378K0.0%-34.0%0.010%
12/1/2023 Wellington Management Group LLP851,018$11.78M0.0%-12.3%0.311%
11/30/2023 Modera Wealth Management LLC419,347$5.80M0.1%-27.3%0.153%
11/16/2023 Sixth Street Partners Management Company L.P.6,300,104$87.19M10.4%-8.3%2.329%
11/15/2023 Seven Eight Capital LP14,826$205K0.0%N/A0.005%
11/15/2023 Ardsley Advisory Partners LP85,000$1.18M0.3%N/A0.031%
11/15/2023 Advantage Alpha Capital Partners LP165,941$2.30M0.5%N/A0.061%
11/14/2023 Quadrature Capital Ltd72,755$1.01M0.0%-16.6%0.027%
11/14/2023 Corton Capital Inc.30,480$422K0.2%-9.1%0.011%
WARNING about the death of the U.S. dollar… (Ad)

Where do you turn during times of economic uncertainty? Many elites trust storing their wealth in gold (which has historically boomed when the dollar’s value has plummeted!)

Get Colonial Metals' new Precious Metals Investment Guide.
11/14/2023 Untitled Investments LP1,553,265$21.50M7.6%-13.8%0.574%
11/14/2023 Cadian Capital Management LP11,204,601$155.07M6.2%+14.7%4.143%
11/14/2023 CWA Asset Management Group LLC30,150$417K0.0%-2.6%0.011%
11/14/2023 Trexquant Investment LP93,793$1.30M0.0%+2.3%0.035%
11/13/2023 Connor Clark & Lunn Investment Management Ltd.70,455$975K0.0%-45.4%0.026%
11/13/2023 Algert Global LLC446,338$6.18M0.3%+44.0%0.165%
11/13/2023 EAM Investors LLC106,381$1.47M0.3%+4.1%0.039%
11/13/2023 Federated Hermes Inc.775,374$10.73M0.0%+234.5%0.287%
11/13/2023 Dark Forest Capital Management LP78,043$1.08M0.1%N/A0.029%
11/13/2023 Acadian Asset Management LLC543,871$7.52M0.0%+25.7%0.201%
(Data available from 1/1/2016 forward)

CXM Institutional Ownership - Frequently Asked Questions

Who are the largest shareholders of CXM shares?

During the previous two years, 169 institutional investors and hedge funds held shares of Sprinklr. The most heavily invested institutionals were Vanguard Group Inc. ($187.11M), Cadian Capital Management LP ($175.30M), Battery Management Corp. ($127.73M), H&F Corporate Investors IX Ltd. ($88.74M), Sixth Street Partners Management Company L.P. ($87.19M), 12 West Capital Management LP ($64.39M), and Praesidium Investment Management Company LLC ($51.84M).Learn more on CXM's institutional investors.

What percentage of Sprinklr stock is owned by institutional investors?

40.19% of Sprinklr stock is owned by institutional investors. Learn more on CXM's institutional investor holdings.

Which institutional investors have been buying Sprinklr stock?

Of the 148 institutional investors that purchased Sprinklr stock in the last 24 months, the following investors and hedge funds have bought the highest volume of shares: H&F Corporate Investors IX Ltd. ($10.86M), Cadian Capital Management LP ($9.43M), Sixth Street Partners Management Company L.P. ($6.87M), Vanguard Group Inc. ($4.97M), Modera Wealth Management LLC ($2.24M), TFG Asset Management GP Ltd ($1.75M), and Marshall Wace LLP ($1.61M).

How much institutional buying is happening at Sprinklr?

Institutional investors have bought a total of 58,384,572 shares in the last 24 months. This purchase volume represents approximately $672.78M in transactions.

Which Sprinklr major shareholders have been selling company stock?

Of the 56 institutional investors that sold Sprinklr stock in the last 24 months, the following investors and hedge funds have sold the highest volume of shares: Battery Management Corp. ($4.04M), Modera Wealth Management LLC ($1.82M), Deutsche Bank AG ($1.10M), EVR Research LP ($974.60K), CWM LLC ($600.66K), Allspring Global Investments Holdings LLC ($583.29K), and Sixth Street Partners Management Company L.P. ($567.54K).

How much institutional selling is happening at Sprinklr?

Institutional investors have sold a total of 12,914,783 shares in the last 24 months. This volume of shares sold represents approximately $162.98M in transactions.


This page (NYSE:CXM) was last updated on 5/27/2024 by MarketBeat.com Staff

From Our Partners